sensor_id;sensor_type;location;lat;lon;timestamp;P1;durP1;ratioP1;P2;durP2;ratioP2
24206;SDS011;12351;52.284;9.160;2022-09-13T00:00:11;4.70;;;3.27;;
24206;SDS011;12351;52.284;9.160;2022-09-13T00:03:03;3.60;;;3.30;;
24206;SDS011;12351;52.284;9.160;2022-09-13T00:05:53;3.07;;;2.77;;
24206;SDS011;12351;52.284;9.160;2022-09-13T00:08:43;4.90;;;3.00;;
24206;SDS011;12351;52.284;9.160;2022-09-13T00:11:34;5.63;;;2.90;;
24206;SDS011;12351;52.284;9.160;2022-09-13T00:14:23;4.53;;;3.00;;
24206;SDS011;12351;52.284;9.160;2022-09-13T00:17:12;3.17;;;2.87;;
24206;SDS011;12351;52.284;9.160;2022-09-13T00:20:06;3.40;;;2.83;;
24206;SDS011;12351;52.284;9.160;2022-09-13T00:22:56;5.00;;;3.67;;
24206;SDS011;12351;52.284;9.160;2022-09-13T00:25:45;3.80;;;3.40;;
24206;SDS011;12351;52.284;9.160;2022-09-13T00:28:34;4.03;;;2.80;;
24206;SDS011;12351;52.284;9.160;2022-09-13T00:31:24;5.20;;;2.93;;
24206;SDS011;12351;52.284;9.160;2022-09-13T00:34:15;3.53;;;3.17;;
24206;SDS011;12351;52.284;9.160;2022-09-13T00:37:06;3.07;;;2.43;;
24206;SDS011;12351;52.284;9.160;2022-09-13T00:39:55;2.90;;;2.70;;
24206;SDS011;12351;52.284;9.160;2022-09-13T00:42:47;6.33;;;2.77;;
24206;SDS011;12351;52.284;9.160;2022-09-13T00:45:36;3.17;;;2.87;;
24206;SDS011;12351;52.284;9.160;2022-09-13T00:48:29;3.87;;;3.00;;
24206;SDS011;12351;52.284;9.160;2022-09-13T00:51:22;3.93;;;3.00;;
24206;SDS011;12351;52.284;9.160;2022-09-13T00:54:13;3.87;;;2.80;;
24206;SDS011;12351;52.284;9.160;2022-09-13T00:57:03;3.33;;;3.03;;
24206;SDS011;12351;52.284;9.160;2022-09-13T01:05:37;3.70;;;2.97;;
24206;SDS011;12351;52.284;9.160;2022-09-13T01:08:26;4.37;;;3.10;;
24206;SDS011;12351;52.284;9.160;2022-09-13T01:11:19;3.30;;;3.00;;
24206;SDS011;12351;52.284;9.160;2022-09-13T01:14:07;3.30;;;2.90;;
24206;SDS011;12351;52.284;9.160;2022-09-13T01:17:00;3.83;;;3.10;;
24206;SDS011;12351;52.284;9.160;2022-09-13T01:19:51;5.33;;;3.27;;
24206;SDS011;12351;52.284;9.160;2022-09-13T01:39:49;3.92;;;3.30;;
24206;SDS011;12351;52.284;9.160;2022-09-13T01:42:40;6.63;;;3.20;;
24206;SDS011;12351;52.284;9.160;2022-09-13T01:51:01;3.80;;;3.20;;
24206;SDS011;12351;52.284;9.160;2022-09-13T01:53:51;4.83;;;3.50;;
24206;SDS011;12351;52.284;9.160;2022-09-13T01:56:42;3.87;;;3.13;;
24206;SDS011;12351;52.284;9.160;2022-09-13T01:59:35;3.75;;;3.45;;
24206;SDS011;12351;52.284;9.160;2022-09-13T02:05:21;7.87;;;4.00;;
24206;SDS011;12351;52.284;9.160;2022-09-13T02:10:59;5.87;;;3.60;;
24206;SDS011;12351;52.284;9.160;2022-09-13T02:13:54;4.10;;;3.63;;
24206;SDS011;12351;52.284;9.160;2022-09-13T02:16:43;4.17;;;3.63;;
24206;SDS011;12351;52.284;9.160;2022-09-13T02:22:25;3.83;;;3.43;;
24206;SDS011;12351;52.284;9.160;2022-09-13T02:25:15;4.73;;;3.40;;
24206;SDS011;12351;52.284;9.160;2022-09-13T02:28:08;4.50;;;3.63;;
24206;SDS011;12351;52.284;9.160;2022-09-13T02:30:58;4.17;;;3.60;;
24206;SDS011;12351;52.284;9.160;2022-09-13T02:33:49;4.20;;;3.80;;
24206;SDS011;12351;52.284;9.160;2022-09-13T02:36:38;4.83;;;3.70;;
24206;SDS011;12351;52.284;9.160;2022-09-13T02:39:29;5.00;;;3.60;;
24206;SDS011;12351;52.284;9.160;2022-09-13T02:42:21;4.67;;;4.00;;
24206;SDS011;12351;52.284;9.160;2022-09-13T02:45:10;4.23;;;3.77;;
24206;SDS011;12351;52.284;9.160;2022-09-13T02:53:44;4.30;;;3.90;;
24206;SDS011;12351;52.284;9.160;2022-09-13T02:59:23;4.87;;;4.13;;
24206;SDS011;12351;52.284;9.160;2022-09-13T03:02:13;5.43;;;4.20;;
24206;SDS011;12351;52.284;9.160;2022-09-13T03:05:04;4.93;;;4.50;;
24206;SDS011;12351;52.284;9.160;2022-09-13T03:07:54;7.60;;;4.70;;
24206;SDS011;12351;52.284;9.160;2022-09-13T03:21:59;5.83;;;5.00;;
24206;SDS011;12351;52.284;9.160;2022-09-13T03:24:49;5.67;;;4.63;;
24206;SDS011;12351;52.284;9.160;2022-09-13T03:30:26;6.93;;;4.97;;
24206;SDS011;12351;52.284;9.160;2022-09-13T03:41:52;7.30;;;4.17;;
24206;SDS011;12351;52.284;9.160;2022-09-13T03:44:43;6.50;;;4.90;;
24206;SDS011;12351;52.284;9.160;2022-09-13T03:47:33;5.77;;;4.37;;
24206;SDS011;12351;52.284;9.160;2022-09-13T03:50:24;5.50;;;4.70;;
24206;SDS011;12351;52.284;9.160;2022-09-13T03:53:18;4.97;;;4.10;;
24206;SDS011;12351;52.284;9.160;2022-09-13T03:58:59;4.73;;;3.83;;
24206;SDS011;12351;52.284;9.160;2022-09-13T04:01:49;5.13;;;4.23;;
24206;SDS011;12351;52.284;9.160;2022-09-13T04:04:39;5.20;;;4.60;;
24206;SDS011;12351;52.284;9.160;2022-09-13T04:07:29;5.43;;;4.50;;
24206;SDS011;12351;52.284;9.160;2022-09-13T04:10:19;5.47;;;4.10;;
24206;SDS011;12351;52.284;9.160;2022-09-13T04:13:09;5.67;;;4.40;;
24206;SDS011;12351;52.284;9.160;2022-09-13T04:16:01;5.55;;;3.98;;
24206;SDS011;12351;52.284;9.160;2022-09-13T04:18:52;4.70;;;4.17;;
24206;SDS011;12351;52.284;9.160;2022-09-13T04:21:46;7.40;;;4.70;;
24206;SDS011;12351;52.284;9.160;2022-09-13T04:24:35;6.35;;;4.37;;
24206;SDS011;12351;52.284;9.160;2022-09-13T04:27:27;4.80;;;4.30;;
24206;SDS011;12351;52.284;9.160;2022-09-13T04:33:10;4.23;;;3.80;;
24206;SDS011;12351;52.284;9.160;2022-09-13T04:36:01;5.40;;;3.73;;
24206;SDS011;12351;52.284;9.160;2022-09-13T04:38:54;6.17;;;4.10;;
24206;SDS011;12351;52.284;9.160;2022-09-13T04:41:46;4.93;;;3.53;;
24206;SDS011;12351;52.284;9.160;2022-09-13T04:44:35;5.90;;;4.20;;
24206;SDS011;12351;52.284;9.160;2022-09-13T04:47:25;5.93;;;4.50;;
24206;SDS011;12351;52.284;9.160;2022-09-13T04:50:17;4.80;;;4.20;;
24206;SDS011;12351;52.284;9.160;2022-09-13T04:53:04;5.13;;;4.03;;
24206;SDS011;12351;52.284;9.160;2022-09-13T04:55:58;4.50;;;4.10;;
24206;SDS011;12351;52.284;9.160;2022-09-13T04:58:45;6.62;;;4.20;;
24206;SDS011;12351;52.284;9.160;2022-09-13T05:01:39;5.17;;;3.90;;
24206;SDS011;12351;52.284;9.160;2022-09-13T05:04:29;6.80;;;4.00;;
24206;SDS011;12351;52.284;9.160;2022-09-13T05:07:18;5.63;;;3.93;;
24206;SDS011;12351;52.284;9.160;2022-09-13T05:10:09;5.03;;;4.43;;
24206;SDS011;12351;52.284;9.160;2022-09-13T05:12:59;4.43;;;4.03;;
24206;SDS011;12351;52.284;9.160;2022-09-13T05:15:48;4.30;;;3.90;;
24206;SDS011;12351;52.284;9.160;2022-09-13T05:18:38;7.40;;;4.42;;
24206;SDS011;12351;52.284;9.160;2022-09-13T05:21:29;7.10;;;4.60;;
24206;SDS011;12351;52.284;9.160;2022-09-13T05:24:19;7.43;;;4.37;;
24206;SDS011;12351;52.284;9.160;2022-09-13T05:27:08;5.93;;;4.20;;
24206;SDS011;12351;52.284;9.160;2022-09-13T05:29:58;6.43;;;4.07;;
24206;SDS011;12351;52.284;9.160;2022-09-13T05:32:51;5.97;;;4.13;;
24206;SDS011;12351;52.284;9.160;2022-09-13T05:35:41;4.67;;;4.00;;
24206;SDS011;12351;52.284;9.160;2022-09-13T05:38:31;6.00;;;4.47;;
24206;SDS011;12351;52.284;9.160;2022-09-13T05:41:20;6.37;;;3.93;;
24206;SDS011;12351;52.284;9.160;2022-09-13T05:44:11;7.47;;;4.50;;
24206;SDS011;12351;52.284;9.160;2022-09-13T05:46:58;11.03;;;4.12;;
24206;SDS011;12351;52.284;9.160;2022-09-13T05:49:51;4.63;;;3.93;;
24206;SDS011;12351;52.284;9.160;2022-09-13T05:52:40;6.13;;;4.27;;
24206;SDS011;12351;52.284;9.160;2022-09-13T05:55:29;4.67;;;4.00;;
24206;SDS011;12351;52.284;9.160;2022-09-13T05:58:21;5.77;;;3.83;;
24206;SDS011;12351;52.284;9.160;2022-09-13T06:01:10;7.37;;;5.03;;
24206;SDS011;12351;52.284;9.160;2022-09-13T06:03:59;5.13;;;4.40;;
24206;SDS011;12351;52.284;9.160;2022-09-13T06:06:50;7.10;;;4.83;;
24206;SDS011;12351;52.284;9.160;2022-09-13T06:09:41;6.47;;;4.37;;
24206;SDS011;12351;52.284;9.160;2022-09-13T06:12:34;9.77;;;5.00;;
24206;SDS011;12351;52.284;9.160;2022-09-13T06:15:26;8.63;;;4.72;;
24206;SDS011;12351;52.284;9.160;2022-09-13T06:18:15;9.83;;;5.40;;
24206;SDS011;12351;52.284;9.160;2022-09-13T06:21:05;6.27;;;4.60;;
24206;SDS011;12351;52.284;9.160;2022-09-13T06:23:54;7.95;;;4.75;;
24206;SDS011;12351;52.284;9.160;2022-09-13T06:26:43;7.17;;;4.90;;
24206;SDS011;12351;52.284;9.160;2022-09-13T06:29:34;5.73;;;4.60;;
24206;SDS011;12351;52.284;9.160;2022-09-13T06:32:26;5.10;;;3.93;;
24206;SDS011;12351;52.284;9.160;2022-09-13T06:35:16;5.07;;;4.57;;
24206;SDS011;12351;52.284;9.160;2022-09-13T06:38:06;6.42;;;4.90;;
24206;SDS011;12351;52.284;9.160;2022-09-13T06:46:42;6.73;;;4.40;;
24206;SDS011;12351;52.284;9.160;2022-09-13T06:49:33;6.92;;;4.70;;
24206;SDS011;12351;52.284;9.160;2022-09-13T06:52:23;5.77;;;4.57;;
24206;SDS011;12351;52.284;9.160;2022-09-13T06:55:12;6.67;;;4.57;;
24206;SDS011;12351;52.284;9.160;2022-09-13T06:58:02;4.87;;;4.37;;
24206;SDS011;12351;52.284;9.160;2022-09-13T07:00:53;8.83;;;5.40;;
24206;SDS011;12351;52.284;9.160;2022-09-13T07:03:45;5.87;;;4.40;;
24206;SDS011;12351;52.284;9.160;2022-09-13T07:06:39;7.63;;;5.17;;
24206;SDS011;12351;52.284;9.160;2022-09-13T07:09:31;6.80;;;4.37;;
24206;SDS011;12351;52.284;9.160;2022-09-13T07:12:21;5.17;;;4.57;;
24206;SDS011;12351;52.284;9.160;2022-09-13T07:15:13;5.07;;;4.53;;
24206;SDS011;12351;52.284;9.160;2022-09-13T07:18:02;5.87;;;4.57;;
24206;SDS011;12351;52.284;9.160;2022-09-13T07:20:57;6.25;;;4.80;;
24206;SDS011;12351;52.284;9.160;2022-09-13T07:23:47;6.80;;;4.72;;
24206;SDS011;12351;52.284;9.160;2022-09-13T07:26:36;6.85;;;4.55;;
24206;SDS011;12351;52.284;9.160;2022-09-13T07:29:30;6.37;;;4.33;;
24206;SDS011;12351;52.284;9.160;2022-09-13T07:32:20;8.98;;;5.05;;
24206;SDS011;12351;52.284;9.160;2022-09-13T07:35:11;9.48;;;4.83;;
24206;SDS011;12351;52.284;9.160;2022-09-13T07:38:03;5.92;;;4.80;;
24206;SDS011;12351;52.284;9.160;2022-09-13T07:41:00;6.25;;;5.28;;
24206;SDS011;12351;52.284;9.160;2022-09-13T07:43:51;7.75;;;5.20;;
24206;SDS011;12351;52.284;9.160;2022-09-13T07:46:41;8.78;;;5.20;;
24206;SDS011;12351;52.284;9.160;2022-09-13T07:49:32;5.53;;;4.75;;
24206;SDS011;12351;52.284;9.160;2022-09-13T07:52:24;11.53;;;8.53;;
24206;SDS011;12351;52.284;9.160;2022-09-13T07:55:15;8.93;;;6.20;;
24206;SDS011;12351;52.284;9.160;2022-09-13T07:58:04;8.43;;;5.75;;
24206;SDS011;12351;52.284;9.160;2022-09-13T08:00:56;8.43;;;5.30;;
24206;SDS011;12351;52.284;9.160;2022-09-13T08:06:38;6.08;;;5.20;;
24206;SDS011;12351;52.284;9.160;2022-09-13T08:09:27;9.65;;;7.58;;
24206;SDS011;12351;52.284;9.160;2022-09-13T08:12:17;8.10;;;6.17;;
24206;SDS011;12351;52.284;9.160;2022-09-13T08:15:08;9.33;;;6.72;;
24206;SDS011;12351;52.284;9.160;2022-09-13T08:17:57;8.70;;;6.27;;
24206;SDS011;12351;52.284;9.160;2022-09-13T08:20:48;7.83;;;6.90;;
24206;SDS011;12351;52.284;9.160;2022-09-13T08:23:38;7.23;;;6.20;;
24206;SDS011;12351;52.284;9.160;2022-09-13T08:26:29;8.03;;;6.10;;
24206;SDS011;12351;52.284;9.160;2022-09-13T08:29:20;9.77;;;7.10;;
24206;SDS011;12351;52.284;9.160;2022-09-13T08:32:08;11.47;;;6.80;;
24206;SDS011;12351;52.284;9.160;2022-09-13T08:34:59;8.57;;;6.40;;
24206;SDS011;12351;52.284;9.160;2022-09-13T08:37:48;7.43;;;6.53;;
24206;SDS011;12351;52.284;9.160;2022-09-13T08:40:39;14.83;;;7.00;;
24206;SDS011;12351;52.284;9.160;2022-09-13T08:46:22;9.88;;;6.80;;
24206;SDS011;12351;52.284;9.160;2022-09-13T08:54:52;9.17;;;7.20;;
24206;SDS011;12351;52.284;9.160;2022-09-13T09:00:36;8.93;;;7.77;;
24206;SDS011;12351;52.284;9.160;2022-09-13T09:06:15;11.37;;;8.17;;
24206;SDS011;12351;52.284;9.160;2022-09-13T09:09:06;9.83;;;7.63;;
24206;SDS011;12351;52.284;9.160;2022-09-13T09:11:57;11.07;;;7.37;;
24206;SDS011;12351;52.284;9.160;2022-09-13T09:14:51;10.87;;;7.43;;
24206;SDS011;12351;52.284;9.160;2022-09-13T09:17:41;10.97;;;7.20;;
24206;SDS011;12351;52.284;9.160;2022-09-13T09:23:17;8.70;;;7.33;;
24206;SDS011;12351;52.284;9.160;2022-09-13T09:26:13;8.30;;;7.00;;
24206;SDS011;12351;52.284;9.160;2022-09-13T09:29:00;10.23;;;7.57;;
24206;SDS011;12351;52.284;9.160;2022-09-13T09:31:53;8.23;;;7.40;;
24206;SDS011;12351;52.284;9.160;2022-09-13T09:37:34;10.43;;;7.75;;
24206;SDS011;12351;52.284;9.160;2022-09-13T09:40:26;9.77;;;7.30;;
24206;SDS011;12351;52.284;9.160;2022-09-13T09:46:06;9.97;;;8.23;;
24206;SDS011;12351;52.284;9.160;2022-09-13T09:49:01;17.85;;;12.18;;
24206;SDS011;12351;52.284;9.160;2022-09-13T09:51:49;8.83;;;7.70;;
24206;SDS011;12351;52.284;9.160;2022-09-13T09:54:40;12.40;;;9.77;;
24206;SDS011;12351;52.284;9.160;2022-09-13T10:00:24;10.65;;;8.18;;
24206;SDS011;12351;52.284;9.160;2022-09-13T10:06:07;10.83;;;8.13;;
24206;SDS011;12351;52.284;9.160;2022-09-13T10:08:57;10.57;;;8.03;;
24206;SDS011;12351;52.284;9.160;2022-09-13T10:11:48;10.83;;;8.80;;
24206;SDS011;12351;52.284;9.160;2022-09-13T10:14:40;11.63;;;8.43;;
24206;SDS011;12351;52.284;9.160;2022-09-13T10:17:32;9.97;;;8.20;;
24206;SDS011;12351;52.284;9.160;2022-09-13T10:20:21;11.25;;;8.33;;
24206;SDS011;12351;52.284;9.160;2022-09-13T10:26:04;11.60;;;8.83;;
24206;SDS011;12351;52.284;9.160;2022-09-13T10:31:34;10.90;;;9.20;;
24206;SDS011;12351;52.284;9.160;2022-09-13T10:37:17;14.13;;;9.30;;
24206;SDS011;12351;52.284;9.160;2022-09-13T10:40:10;9.80;;;8.80;;
24206;SDS011;12351;52.284;9.160;2022-09-13T10:42:59;10.73;;;8.73;;
24206;SDS011;12351;52.284;9.160;2022-09-13T10:45:49;13.17;;;10.00;;
24206;SDS011;12351;52.284;9.160;2022-09-13T10:51:33;10.13;;;8.80;;
24206;SDS011;12351;52.284;9.160;2022-09-13T10:54:22;13.60;;;9.90;;
24206;SDS011;12351;52.284;9.160;2022-09-13T11:00:05;12.20;;;10.40;;
24206;SDS011;12351;52.284;9.160;2022-09-13T11:14:20;13.57;;;9.70;;
24206;SDS011;12351;52.284;9.160;2022-09-13T11:17:13;15.03;;;12.30;;
24206;SDS011;12351;52.284;9.160;2022-09-13T11:28:45;14.57;;;12.17;;
24206;SDS011;12351;52.284;9.160;2022-09-13T11:34:17;16.03;;;12.17;;
24206;SDS011;12351;52.284;9.160;2022-09-13T11:40:02;18.93;;;14.50;;
24206;SDS011;12351;52.284;9.160;2022-09-13T11:42:49;17.20;;;13.77;;
24206;SDS011;12351;52.284;9.160;2022-09-13T11:57:03;18.97;;;13.77;;
24206;SDS011;12351;52.284;9.160;2022-09-13T12:02:44;19.10;;;13.80;;
24206;SDS011;12351;52.284;9.160;2022-09-13T12:05:35;15.43;;;12.23;;
24206;SDS011;12351;52.284;9.160;2022-09-13T12:08:25;14.13;;;12.33;;
24206;SDS011;12351;52.284;9.160;2022-09-13T12:11:16;12.20;;;10.17;;
24206;SDS011;12351;52.284;9.160;2022-09-13T12:14:04;13.63;;;9.30;;
24206;SDS011;12351;52.284;9.160;2022-09-13T12:16:57;10.18;;;8.78;;
24206;SDS011;12351;52.284;9.160;2022-09-13T12:19:47;13.07;;;10.63;;
24206;SDS011;12351;52.284;9.160;2022-09-13T12:22:37;11.97;;;8.03;;
24206;SDS011;12351;52.284;9.160;2022-09-13T12:25:31;6.60;;;5.77;;
24206;SDS011;12351;52.284;9.160;2022-09-13T12:31:10;21.70;;;19.17;;
24206;SDS011;12351;52.284;9.160;2022-09-13T12:33:59;6.37;;;5.50;;
24206;SDS011;12351;52.284;9.160;2022-09-13T12:36:53;7.20;;;6.50;;
24206;SDS011;12351;52.284;9.160;2022-09-13T12:45:24;4.57;;;4.10;;
24206;SDS011;12351;52.284;9.160;2022-09-13T12:48:16;6.33;;;3.90;;
24206;SDS011;12351;52.284;9.160;2022-09-13T12:53:59;5.77;;;4.03;;
24206;SDS011;12351;52.284;9.160;2022-09-13T13:13:40;3.83;;;2.80;;
24206;SDS011;12351;52.284;9.160;2022-09-13T13:16:30;3.70;;;2.80;;
24206;SDS011;12351;52.284;9.160;2022-09-13T13:27:53;4.03;;;3.40;;
24206;SDS011;12351;52.284;9.160;2022-09-13T13:30:41;4.47;;;3.17;;
24206;SDS011;12351;52.284;9.160;2022-09-13T13:33:41;5.67;;;3.50;;
24206;SDS011;12351;52.284;9.160;2022-09-13T13:36:23;3.17;;;2.50;;
24206;SDS011;12351;52.284;9.160;2022-09-13T13:50:31;2.37;;;2.17;;
24206;SDS011;12351;52.284;9.160;2022-09-13T13:53:32;3.60;;;2.23;;
24206;SDS011;12351;52.284;9.160;2022-09-13T14:01:53;3.70;;;2.10;;
24206;SDS011;12351;52.284;9.160;2022-09-13T14:04:46;2.70;;;2.10;;
24206;SDS011;12351;52.284;9.160;2022-09-13T14:07:39;3.20;;;1.93;;
24206;SDS011;12351;52.284;9.160;2022-09-13T14:10:21;2.00;;;1.87;;
24206;SDS011;12351;52.284;9.160;2022-09-13T14:18:52;2.33;;;1.80;;
24206;SDS011;12351;52.284;9.160;2022-09-13T14:21:39;3.00;;;2.03;;
24206;SDS011;12351;52.284;9.160;2022-09-13T14:24:28;3.10;;;2.30;;
24206;SDS011;12351;52.284;9.160;2022-09-13T14:27:21;4.10;;;2.20;;
24206;SDS011;12351;52.284;9.160;2022-09-13T14:33:06;2.95;;;1.90;;
24206;SDS011;12351;52.284;9.160;2022-09-13T14:35:56;4.30;;;2.10;;
24206;SDS011;12351;52.284;9.160;2022-09-13T14:38:49;2.10;;;1.90;;
24206;SDS011;12351;52.284;9.160;2022-09-13T14:41:37;1.97;;;1.73;;
24206;SDS011;12351;52.284;9.160;2022-09-13T14:44:25;2.00;;;1.70;;
24206;SDS011;12351;52.284;9.160;2022-09-13T14:47:20;3.27;;;1.70;;
24206;SDS011;12351;52.284;9.160;2022-09-13T14:50:10;2.10;;;1.60;;
24206;SDS011;12351;52.284;9.160;2022-09-13T14:52:58;2.13;;;1.67;;
24206;SDS011;12351;52.284;9.160;2022-09-13T14:55:50;2.67;;;1.30;;
24206;SDS011;12351;52.284;9.160;2022-09-13T15:01:32;2.98;;;1.12;;
24206;SDS011;12351;52.284;9.160;2022-09-13T15:04:22;26.33;;;23.47;;
24206;SDS011;12351;52.284;9.160;2022-09-13T15:15:44;6.37;;;0.90;;
24206;SDS011;12351;52.284;9.160;2022-09-13T15:18:31;4.87;;;1.20;;
24206;SDS011;12351;52.284;9.160;2022-09-13T15:21:23;2.63;;;1.20;;
24206;SDS011;12351;52.284;9.160;2022-09-13T15:24:17;2.63;;;1.07;;
24206;SDS011;12351;52.284;9.160;2022-09-13T15:27:02;3.43;;;1.13;;
24206;SDS011;12351;52.284;9.160;2022-09-13T15:29:53;2.77;;;1.37;;
24206;SDS011;12351;52.284;9.160;2022-09-13T15:32:42;1.60;;;1.17;;
24206;SDS011;12351;52.284;9.160;2022-09-13T15:41:17;2.00;;;1.27;;
24206;SDS011;12351;52.284;9.160;2022-09-13T15:44:07;2.27;;;1.10;;
24206;SDS011;12351;52.284;9.160;2022-09-13T15:49:48;5.60;;;1.00;;
24206;SDS011;12351;52.284;9.160;2022-09-13T15:52:40;3.20;;;0.63;;
24206;SDS011;12351;52.284;9.160;2022-09-13T15:55:32;1.50;;;0.70;;
24206;SDS011;12351;52.284;9.160;2022-09-13T16:01:11;4.30;;;0.83;;
24206;SDS011;12351;52.284;9.160;2022-09-13T16:04:03;3.00;;;1.00;;
24206;SDS011;12351;52.284;9.160;2022-09-13T16:06:56;1.30;;;0.70;;
24206;SDS011;12351;52.284;9.160;2022-09-13T16:09:48;4.77;;;0.80;;
24206;SDS011;12351;52.284;9.160;2022-09-13T16:12:37;3.20;;;0.82;;
24206;SDS011;12351;52.284;9.160;2022-09-13T16:15:27;1.77;;;0.80;;
24206;SDS011;12351;52.284;9.160;2022-09-13T16:18:18;4.03;;;1.00;;
24206;SDS011;12351;52.284;9.160;2022-09-13T16:21:09;5.03;;;0.87;;
24206;SDS011;12351;52.284;9.160;2022-09-13T16:24:00;2.40;;;0.75;;
24206;SDS011;12351;52.284;9.160;2022-09-13T16:26:52;2.90;;;0.73;;
24206;SDS011;12351;52.284;9.160;2022-09-13T16:29:45;2.65;;;0.68;;
24206;SDS011;12351;52.284;9.160;2022-09-13T16:32:34;1.67;;;0.97;;
24206;SDS011;12351;52.284;9.160;2022-09-13T16:35:27;2.93;;;0.70;;
24206;SDS011;12351;52.284;9.160;2022-09-13T16:38:15;1.70;;;0.73;;
24206;SDS011;12351;52.284;9.160;2022-09-13T16:41:06;3.23;;;0.60;;
24206;SDS011;12351;52.284;9.160;2022-09-13T16:43:55;3.03;;;0.60;;
24206;SDS011;12351;52.284;9.160;2022-09-13T16:46:47;3.27;;;0.70;;
24206;SDS011;12351;52.284;9.160;2022-09-13T16:49:35;1.63;;;0.60;;
24206;SDS011;12351;52.284;9.160;2022-09-13T16:52:25;3.00;;;0.60;;
24206;SDS011;12351;52.284;9.160;2022-09-13T16:55:16;2.33;;;0.60;;
24206;SDS011;12351;52.284;9.160;2022-09-13T16:58:09;1.40;;;0.50;;
24206;SDS011;12351;52.284;9.160;2022-09-13T17:01:01;0.90;;;0.40;;
24206;SDS011;12351;52.284;9.160;2022-09-13T17:03:49;1.93;;;0.70;;
24206;SDS011;12351;52.284;9.160;2022-09-13T17:06:41;2.80;;;0.50;;
24206;SDS011;12351;52.284;9.160;2022-09-13T17:09:31;3.13;;;0.80;;
24206;SDS011;12351;52.284;9.160;2022-09-13T17:12:21;2.53;;;0.80;;
24206;SDS011;12351;52.284;9.160;2022-09-13T17:15:12;2.50;;;0.80;;
24206;SDS011;12351;52.284;9.160;2022-09-13T17:18:02;5.13;;;1.00;;
24206;SDS011;12351;52.284;9.160;2022-09-13T17:20:52;3.90;;;1.10;;
24206;SDS011;12351;52.284;9.160;2022-09-13T17:23:45;3.27;;;0.70;;
24206;SDS011;12351;52.284;9.160;2022-09-13T17:26:34;4.23;;;1.50;;
24206;SDS011;12351;52.284;9.160;2022-09-13T17:29:24;5.83;;;0.93;;
24206;SDS011;12351;52.284;9.160;2022-09-13T17:32:15;5.27;;;0.80;;
24206;SDS011;12351;52.284;9.160;2022-09-13T17:35:06;1.60;;;0.63;;
24206;SDS011;12351;52.284;9.160;2022-09-13T17:37:55;3.50;;;1.10;;
24206;SDS011;12351;52.284;9.160;2022-09-13T17:40:45;3.30;;;0.70;;
24206;SDS011;12351;52.284;9.160;2022-09-13T17:43:37;1.30;;;0.70;;
24206;SDS011;12351;52.284;9.160;2022-09-13T17:46:28;1.50;;;0.80;;
24206;SDS011;12351;52.284;9.160;2022-09-13T17:49:19;0.75;;;0.50;;
24206;SDS011;12351;52.284;9.160;2022-09-13T17:52:07;4.20;;;1.80;;
24206;SDS011;12351;52.284;9.160;2022-09-13T17:54:57;3.40;;;2.70;;
24206;SDS011;12351;52.284;9.160;2022-09-13T17:57:47;24.12;;;19.27;;
24206;SDS011;12351;52.284;9.160;2022-09-13T18:00:40;5.05;;;3.62;;
24206;SDS011;12351;52.284;9.160;2022-09-13T18:03:29;1.93;;;0.80;;
24206;SDS011;12351;52.284;9.160;2022-09-13T18:06:24;2.57;;;0.80;;
24206;SDS011;12351;52.284;9.160;2022-09-13T18:09:14;7.30;;;0.80;;
24206;SDS011;12351;52.284;9.160;2022-09-13T18:12:05;2.63;;;0.77;;
24206;SDS011;12351;52.284;9.160;2022-09-13T18:14:55;2.67;;;0.60;;
24206;SDS011;12351;52.284;9.160;2022-09-13T18:17:47;3.53;;;0.57;;
24206;SDS011;12351;52.284;9.160;2022-09-13T18:20:37;6.47;;;0.70;;
24206;SDS011;12351;52.284;9.160;2022-09-13T18:23:26;1.50;;;0.50;;
24206;SDS011;12351;52.284;9.160;2022-09-13T18:26:18;3.80;;;0.77;;
24206;SDS011;12351;52.284;9.160;2022-09-13T18:29:09;2.30;;;0.80;;
24206;SDS011;12351;52.284;9.160;2022-09-13T18:32:00;4.37;;;0.93;;
24206;SDS011;12351;52.284;9.160;2022-09-13T18:34:51;2.83;;;0.63;;
24206;SDS011;12351;52.284;9.160;2022-09-13T18:37:42;3.20;;;1.00;;
24206;SDS011;12351;52.284;9.160;2022-09-13T18:40:33;2.03;;;0.70;;
24206;SDS011;12351;52.284;9.160;2022-09-13T18:43:22;4.23;;;0.70;;
24206;SDS011;12351;52.284;9.160;2022-09-13T18:46:13;3.07;;;0.60;;
24206;SDS011;12351;52.284;9.160;2022-09-13T18:49:02;6.45;;;1.15;;
24206;SDS011;12351;52.284;9.160;2022-09-13T18:51:51;6.53;;;1.60;;
24206;SDS011;12351;52.284;9.160;2022-09-13T18:54:39;5.13;;;1.07;;
24206;SDS011;12351;52.284;9.160;2022-09-13T18:57:29;2.47;;;0.70;;
24206;SDS011;12351;52.284;9.160;2022-09-13T19:00:20;2.43;;;0.70;;
24206;SDS011;12351;52.284;9.160;2022-09-13T19:03:08;2.63;;;0.90;;
24206;SDS011;12351;52.284;9.160;2022-09-13T19:08:55;3.23;;;0.80;;
24206;SDS011;12351;52.284;9.160;2022-09-13T19:11:49;5.27;;;1.63;;
24206;SDS011;12351;52.284;9.160;2022-09-13T19:14:38;3.53;;;1.00;;
24206;SDS011;12351;52.284;9.160;2022-09-13T19:17:27;4.00;;;0.70;;
24206;SDS011;12351;52.284;9.160;2022-09-13T19:20:19;6.33;;;0.97;;
24206;SDS011;12351;52.284;9.160;2022-09-13T19:23:11;6.03;;;1.10;;
24206;SDS011;12351;52.284;9.160;2022-09-13T19:28:51;4.30;;;0.90;;
24206;SDS011;12351;52.284;9.160;2022-09-13T19:34:31;4.45;;;0.70;;
24206;SDS011;12351;52.284;9.160;2022-09-13T19:37:18;6.07;;;1.03;;
24206;SDS011;12351;52.284;9.160;2022-09-13T19:40:05;6.70;;;1.00;;
24206;SDS011;12351;52.284;9.160;2022-09-13T19:42:52;5.23;;;0.70;;
24206;SDS011;12351;52.284;9.160;2022-09-13T19:45:39;6.23;;;0.80;;
24206;SDS011;12351;52.284;9.160;2022-09-13T19:48:26;4.93;;;0.90;;
24206;SDS011;12351;52.284;9.160;2022-09-13T19:51:14;8.80;;;1.00;;
24206;SDS011;12351;52.284;9.160;2022-09-13T19:54:03;3.33;;;0.90;;
24206;SDS011;12351;52.284;9.160;2022-09-13T19:56:51;3.97;;;0.87;;
24206;SDS011;12351;52.284;9.160;2022-09-13T19:59:39;3.67;;;0.87;;
24206;SDS011;12351;52.284;9.160;2022-09-13T20:02:25;4.40;;;0.90;;
24206;SDS011;12351;52.284;9.160;2022-09-13T20:05:12;2.27;;;0.80;;
24206;SDS011;12351;52.284;9.160;2022-09-13T20:10:50;3.40;;;0.90;;
24206;SDS011;12351;52.284;9.160;2022-09-13T20:13:37;5.83;;;1.43;;
24206;SDS011;12351;52.284;9.160;2022-09-13T20:16:25;6.37;;;1.00;;
24206;SDS011;12351;52.284;9.160;2022-09-13T20:19:14;5.33;;;1.03;;
24206;SDS011;12351;52.284;9.160;2022-09-13T20:22:03;4.70;;;0.90;;
24206;SDS011;12351;52.284;9.160;2022-09-13T20:27:38;4.43;;;1.10;;
24206;SDS011;12351;52.284;9.160;2022-09-13T20:30:25;3.33;;;1.00;;
24206;SDS011;12351;52.284;9.160;2022-09-13T20:33:12;3.83;;;1.97;;
24206;SDS011;12351;52.284;9.160;2022-09-13T20:38:49;4.27;;;1.03;;
24206;SDS011;12351;52.284;9.160;2022-09-13T20:41:36;9.27;;;1.00;;
24206;SDS011;12351;52.284;9.160;2022-09-13T20:44:23;6.30;;;1.20;;
24206;SDS011;12351;52.284;9.160;2022-09-13T20:47:10;2.93;;;0.80;;
24206;SDS011;12351;52.284;9.160;2022-09-13T20:49:57;4.63;;;0.90;;
24206;SDS011;12351;52.284;9.160;2022-09-13T20:52:44;7.00;;;1.10;;
24206;SDS011;12351;52.284;9.160;2022-09-13T20:55:32;5.80;;;2.00;;
24206;SDS011;12351;52.284;9.160;2022-09-13T20:58:20;5.17;;;1.50;;
24206;SDS011;12351;52.284;9.160;2022-09-13T21:01:09;7.17;;;1.20;;
24206;SDS011;12351;52.284;9.160;2022-09-13T21:03:58;5.80;;;0.90;;
24206;SDS011;12351;52.284;9.160;2022-09-13T21:06:45;3.90;;;0.93;;
24206;SDS011;12351;52.284;9.160;2022-09-13T21:09:35;3.37;;;1.20;;
24206;SDS011;12351;52.284;9.160;2022-09-13T21:12:22;7.03;;;0.87;;
24206;SDS011;12351;52.284;9.160;2022-09-13T21:15:09;4.60;;;0.80;;
24206;SDS011;12351;52.284;9.160;2022-09-13T21:17:56;3.83;;;0.97;;
24206;SDS011;12351;52.284;9.160;2022-09-13T21:20:52;4.87;;;0.97;;
24206;SDS011;12351;52.284;9.160;2022-09-13T21:23:34;7.43;;;1.10;;
24206;SDS011;12351;52.284;9.160;2022-09-13T21:26:24;4.83;;;0.90;;
24206;SDS011;12351;52.284;9.160;2022-09-13T21:29:13;4.47;;;0.93;;